createdAt,value
2022-12-23T00:00:37.469Z,40.90
2022-12-23T00:03:06.319Z,39.25
2022-12-23T00:05:41.599Z,45.72
2022-12-23T00:08:09.947Z,47.90
2022-12-23T00:10:41.813Z,48.78
2022-12-23T00:13:11.415Z,49.65
2022-12-23T00:15:39.810Z,51.53
2022-12-23T00:18:08.556Z,76.32
2022-12-23T00:20:37.173Z,74.75
2022-12-23T00:23:05.636Z,61.13
2022-12-23T00:25:36.254Z,63.88
2022-12-23T00:28:04.797Z,50.70
2022-12-23T00:30:32.908Z,45.88
2022-12-23T00:33:01.124Z,47.97
2022-12-23T00:35:31.508Z,41.70
2022-12-23T00:38:00.087Z,43.72
2022-12-23T00:40:28.470Z,35.97
2022-12-23T00:42:58.189Z,38.75
2022-12-23T00:45:26.657Z,38.60
2022-12-23T00:47:54.947Z,33.67
2022-12-23T00:50:23.288Z,30.85
2022-12-23T00:52:51.524Z,31.52
2022-12-23T00:55:19.813Z,30.45
2022-12-23T00:57:48.298Z,32.97
2022-12-23T01:00:18.417Z,35.65
2022-12-23T01:02:46.683Z,39.47
2022-12-23T01:05:15.035Z,41.03
2022-12-23T01:07:43.169Z,38.70
2022-12-23T01:10:11.618Z,41.03
2022-12-23T01:12:39.868Z,44.47
2022-12-23T01:15:08.527Z,42.20
2022-12-23T01:17:36.782Z,42.45
2022-12-23T01:20:05.415Z,42.28
2022-12-23T01:22:33.642Z,39.40
2022-12-23T01:25:02.031Z,40.03
2022-12-23T01:27:30.167Z,38.35
2022-12-23T01:29:58.591Z,36.03
2022-12-23T01:32:27.021Z,39.95
2022-12-23T01:34:55.342Z,36.65
2022-12-23T01:37:23.405Z,36.10
2022-12-23T01:39:51.688Z,41.17
2022-12-23T01:42:21.305Z,44.17
2022-12-23T01:44:56.439Z,42.70
2022-12-23T01:47:30.739Z,40.08
2022-12-23T01:50:07.501Z,37.75
2022-12-23T01:52:42.723Z,40.90
2022-12-23T01:55:11.880Z,36.78
2022-12-23T01:57:43.167Z,33.25
2022-12-23T02:00:13.575Z,34.17
2022-12-23T02:02:47.313Z,34.45
2022-12-23T02:05:16.628Z,36.60
2022-12-23T02:07:45.305Z,35.47
2022-12-23T02:10:13.691Z,36.95
2022-12-23T02:12:49.614Z,35.03
2022-12-23T02:15:31.957Z,33.45
2022-12-23T02:18:06.075Z,33.35
2022-12-23T02:21:15.530Z,34.00
2022-12-23T02:24:02.286Z,33.97
2022-12-23T02:27:07.553Z,40.65
2022-12-23T02:30:08.501Z,41.38
2022-12-23T02:33:12.148Z,40.38
2022-12-23T02:35:58.737Z,37.58
2022-12-23T02:38:52.483Z,35.55
2022-12-23T02:41:42.099Z,37.13
2022-12-23T02:44:10.369Z,35.20
2022-12-23T02:46:51.760Z,32.83
2022-12-23T02:49:36.064Z,28.07
2022-12-23T02:52:13.101Z,26.30
2022-12-23T02:54:56.978Z,25.45
2022-12-23T02:57:32.818Z,27.60
2022-12-23T03:00:02.960Z,24.08
2022-12-23T03:02:38.057Z,21.90
2022-12-23T03:05:08.604Z,24.70
2022-12-23T03:07:44.585Z,20.90
2022-12-23T03:10:28.556Z,24.80
2022-12-23T03:13:37.902Z,21.08
2022-12-23T03:16:17.242Z,18.27
2022-12-23T03:18:52.430Z,22.05
2022-12-23T03:21:43.972Z,20.75
2022-12-23T03:24:41.574Z,22.58
2022-12-23T03:27:23.051Z,20.90
2022-12-23T03:30:08.747Z,23.13
2022-12-23T03:33:10.921Z,21.48
2022-12-23T03:35:48.377Z,20.83
2022-12-23T03:38:19.034Z,19.42
2022-12-23T03:40:58.694Z,23.30
2022-12-23T03:43:35.301Z,21.88
2022-12-23T03:46:24.596Z,21.05
2022-12-23T03:48:56.838Z,18.92
2022-12-23T03:54:04.309Z,23.25
2022-12-23T03:56:42.773Z,19.85
2022-12-23T03:59:26.041Z,18.55
2022-12-23T04:02:01.048Z,17.52
2022-12-23T04:04:46.890Z,18.02
2022-12-23T04:07:22.230Z,18.00
2022-12-23T04:09:54.001Z,16.73
2022-12-23T04:12:26.890Z,15.88
2022-12-23T04:14:55.236Z,16.33
2022-12-23T04:17:23.671Z,16.75
2022-12-23T04:19:53.025Z,15.60
2022-12-23T04:22:21.189Z,18.30
2022-12-23T04:24:49.531Z,15.68
2022-12-23T04:27:18.430Z,15.68
2022-12-23T04:29:46.695Z,15.23
2022-12-23T04:32:14.796Z,15.52
2022-12-23T04:34:43.205Z,15.13
2022-12-23T04:37:11.492Z,16.48
2022-12-23T04:39:39.689Z,15.45
2022-12-23T04:42:07.977Z,14.25
2022-12-23T04:44:36.167Z,17.25
2022-12-23T04:47:04.569Z,17.00
2022-12-23T04:49:32.976Z,17.58
2022-12-23T04:52:02.135Z,16.25
2022-12-23T04:54:30.526Z,17.90
2022-12-23T04:57:01.166Z,16.15
2022-12-23T04:59:29.554Z,14.05
2022-12-23T05:01:57.935Z,15.75
2022-12-23T05:04:26.576Z,14.82
2022-12-23T05:06:54.836Z,15.10
2022-12-23T05:09:23.108Z,16.42
2022-12-23T05:11:51.459Z,16.88
2022-12-23T05:14:20.291Z,16.08
2022-12-23T05:16:48.682Z,13.77
2022-12-23T05:19:16.944Z,16.23
2022-12-23T05:21:47.219Z,14.57
2022-12-23T05:24:15.605Z,17.88
2022-12-23T05:26:47.740Z,17.38
2022-12-23T05:32:11.736Z,19.48
2022-12-23T05:34:39.970Z,17.20
2022-12-23T05:37:08.212Z,16.88
2022-12-23T05:39:36.461Z,16.92
2022-12-23T05:42:05.022Z,17.30
2022-12-23T05:44:33.277Z,16.55
2022-12-23T05:47:55.130Z,18.23
2022-12-23T05:50:23.391Z,17.27
2022-12-23T05:52:51.721Z,15.30
2022-12-23T05:55:19.845Z,15.43
2022-12-23T05:57:48.162Z,16.75
2022-12-23T06:00:16.828Z,16.00
2022-12-23T06:02:51.776Z,17.15
2022-12-23T06:05:22.253Z,14.82
2022-12-23T06:07:50.567Z,15.70
2022-12-23T06:10:19.334Z,16.33
2022-12-23T06:12:48.000Z,18.25
2022-12-23T06:15:16.121Z,16.70
2022-12-23T06:17:44.412Z,17.20
2022-12-23T06:20:20.012Z,17.38
2022-12-23T06:22:48.946Z,15.27
2022-12-23T06:25:17.196Z,16.35
2022-12-23T06:27:46.666Z,17.65
2022-12-23T06:30:15.706Z,15.38
2022-12-23T06:32:44.980Z,16.85
2022-12-23T06:35:13.273Z,17.52
2022-12-23T06:37:41.485Z,15.02
2022-12-23T06:40:10.441Z,17.92
2022-12-23T06:42:38.679Z,17.27
2022-12-23T06:45:07.329Z,22.75
2022-12-23T06:47:35.663Z,20.77
2022-12-23T06:50:05.267Z,18.63
2022-12-23T06:52:33.573Z,18.67
2022-12-23T06:55:01.823Z,18.33
2022-12-23T06:57:30.795Z,19.40
2022-12-23T06:59:59.045Z,18.77
2022-12-23T07:02:28.602Z,19.88
2022-12-23T07:04:56.874Z,19.30
2022-12-23T07:07:25.325Z,18.60
2022-12-23T07:09:53.641Z,19.77
2022-12-23T07:12:21.787Z,17.10
2022-12-23T07:14:50.100Z,16.48
2022-12-23T07:17:18.589Z,16.85
2022-12-23T07:19:46.732Z,16.73
2022-12-23T07:22:14.811Z,19.15
2022-12-23T07:24:43.164Z,17.42
2022-12-23T07:27:11.336Z,17.73
2022-12-23T07:29:39.516Z,19.63
2022-12-23T07:32:08.005Z,19.33
2022-12-23T07:34:36.426Z,18.35
2022-12-23T07:37:04.727Z,16.58
2022-12-23T07:39:33.090Z,15.40
2022-12-23T07:42:33.804Z,14.82
2022-12-23T07:44:49.723Z,14.18
2022-12-23T07:47:18.255Z,14.20
2022-12-23T07:49:46.417Z,13.60
2022-12-23T07:52:14.566Z,11.52
2022-12-23T07:54:42.956Z,11.93
2022-12-23T07:57:11.155Z,14.13
2022-12-23T07:59:39.364Z,14.85
2022-12-23T08:02:07.927Z,13.90
2022-12-23T08:04:42.546Z,14.45
2022-12-23T08:07:14.132Z,15.63
2022-12-23T08:09:42.371Z,15.27
2022-12-23T08:12:10.755Z,16.05
2022-12-23T08:14:38.907Z,17.20
2022-12-23T08:17:07.158Z,21.10
2022-12-23T08:19:35.703Z,20.73
2022-12-23T08:22:04.187Z,21.48
2022-12-23T08:24:32.367Z,22.83
2022-12-23T08:27:00.745Z,15.30
2022-12-23T08:29:34.168Z,16.50
2022-12-23T08:32:04.872Z,15.85
2022-12-23T08:34:33.363Z,13.55
2022-12-23T08:37:01.713Z,14.07
2022-12-23T08:39:30.525Z,13.57
2022-12-23T08:41:59.127Z,11.38
2022-12-23T08:44:27.617Z,13.52
2022-12-23T08:46:56.408Z,12.15
2022-12-23T08:49:24.835Z,13.85
2022-12-23T08:51:53.171Z,14.38
2022-12-23T08:54:21.533Z,15.70
2022-12-23T08:56:50.231Z,14.77
2022-12-23T08:59:19.937Z,12.85
2022-12-23T09:01:49.393Z,16.23
2022-12-23T09:04:17.790Z,14.38
2022-12-23T09:06:46.195Z,13.35
2022-12-23T09:09:15.138Z,14.05
2022-12-23T09:11:44.230Z,12.98
2022-12-23T09:14:13.033Z,17.00
2022-12-23T09:16:41.377Z,13.75
2022-12-23T09:19:09.751Z,13.20
2022-12-23T09:21:38.186Z,11.48
2022-12-23T09:24:06.857Z,11.90
2022-12-23T09:26:35.362Z,12.73
2022-12-23T09:29:05.264Z,13.43
2022-12-23T09:31:37.426Z,11.60
2022-12-23T09:34:06.948Z,12.02
2022-12-23T09:36:35.276Z,13.52
2022-12-23T09:39:04.438Z,12.23
2022-12-23T09:42:23.112Z,12.65
2022-12-23T09:45:03.729Z,11.45
2022-12-23T09:47:34.066Z,11.35
2022-12-23T09:50:13.617Z,12.27
2022-12-23T09:52:54.875Z,11.68
2022-12-23T09:55:29.166Z,12.03
2022-12-23T09:58:06.489Z,13.18
2022-12-23T10:00:47.408Z,15.02
2022-12-23T10:03:36.411Z,16.30
2022-12-23T10:06:26.327Z,14.93
2022-12-23T10:09:01.262Z,12.93
2022-12-23T10:11:36.092Z,14.10
2022-12-23T10:14:18.748Z,13.70
2022-12-23T10:16:52.853Z,16.35
2022-12-23T10:19:43.120Z,14.52
2022-12-23T10:22:21.651Z,14.25
2022-12-23T10:24:50.517Z,14.02
2022-12-23T10:27:31.126Z,11.65
2022-12-23T10:30:50.916Z,11.88
2022-12-23T10:33:20.926Z,14.73
2022-12-23T10:35:58.617Z,12.55
2022-12-23T10:38:41.509Z,17.23
2022-12-23T10:41:36.169Z,14.30
2022-12-23T10:44:32.504Z,15.63
2022-12-23T10:47:33.507Z,12.85
2022-12-23T10:50:07.930Z,11.70
2022-12-23T10:52:41.545Z,10.30
2022-12-23T10:55:36.991Z,10.25
2022-12-23T10:58:14.753Z,11.43
2022-12-23T11:00:49.099Z,9.88
2022-12-23T11:03:31.922Z,11.30
2022-12-23T11:06:01.269Z,8.88
2022-12-23T11:08:39.002Z,9.55
2022-12-23T11:11:08.273Z,9.20
2022-12-23T11:13:40.778Z,10.25
2022-12-23T11:16:25.059Z,9.18
2022-12-23T11:19:06.867Z,10.70
2022-12-23T11:21:35.353Z,9.55
2022-12-23T11:24:15.079Z,10.70
2022-12-23T11:26:45.610Z,10.23
2022-12-23T11:29:30.217Z,7.97
2022-12-23T11:31:59.435Z,11.98
2022-12-23T11:34:30.126Z,10.20
2022-12-23T11:37:05.452Z,9.93
2022-12-23T11:39:38.315Z,10.13
2022-12-23T11:42:12.272Z,12.77
2022-12-23T11:44:48.353Z,8.98
2022-12-23T11:47:24.776Z,10.88
2022-12-23T11:49:58.260Z,14.02
2022-12-23T11:52:29.211Z,10.10
2022-12-23T11:55:00.514Z,8.60
2022-12-23T11:57:34.650Z,9.40
2022-12-23T12:00:05.489Z,11.38
2022-12-23T12:02:41.574Z,9.37
2022-12-23T12:05:37.715Z,12.63
2022-12-23T12:08:16.711Z,9.65
2022-12-23T12:10:45.433Z,9.43
2022-12-23T12:13:40.070Z,9.88
2022-12-23T12:16:45.126Z,10.23
2022-12-23T12:19:19.710Z,8.75
2022-12-23T12:21:50.743Z,10.00
2022-12-23T12:24:27.792Z,9.55
2022-12-23T12:27:02.228Z,9.82
2022-12-23T12:29:46.620Z,8.60
2022-12-23T12:32:33.605Z,9.63
2022-12-23T12:35:20.385Z,8.85
2022-12-23T12:37:56.343Z,12.82
2022-12-23T12:40:36.842Z,9.13
2022-12-23T12:43:08.077Z,10.60
2022-12-23T12:45:54.180Z,8.02
2022-12-23T12:48:55.807Z,9.88
2022-12-23T12:51:30.659Z,8.80
2022-12-23T12:54:20.295Z,10.27
2022-12-23T12:56:55.077Z,9.48
2022-12-23T12:59:40.109Z,11.07
2022-12-23T13:02:31.139Z,9.68
2022-12-23T13:05:20.193Z,11.17
2022-12-23T13:07:56.854Z,9.93
2022-12-23T13:10:41.927Z,9.75
2022-12-23T13:13:47.095Z,10.32
2022-12-23T13:16:34.210Z,10.57
2022-12-23T13:19:35.405Z,9.52
2022-12-23T13:22:12.222Z,13.05
2022-12-23T13:24:48.291Z,9.05
2022-12-23T13:27:41.965Z,15.02
2022-12-23T13:30:10.617Z,11.20
2022-12-23T13:32:50.794Z,9.77
2022-12-23T13:35:52.213Z,11.75
2022-12-23T13:38:39.368Z,10.75
2022-12-23T13:41:32.825Z,10.68
2022-12-23T13:44:03.765Z,10.07
2022-12-23T13:46:44.888Z,9.23
2022-12-23T13:49:29.563Z,10.82
2022-12-23T13:52:15.132Z,12.27
2022-12-23T13:55:01.396Z,8.82
2022-12-23T13:57:55.482Z,10.45
2022-12-23T14:00:33.176Z,9.57
2022-12-23T14:03:01.456Z,9.68
2022-12-23T14:05:37.414Z,14.38
2022-12-23T14:08:21.180Z,9.52
2022-12-23T14:11:12.386Z,9.65
2022-12-23T14:13:53.106Z,9.82
2022-12-23T14:16:57.052Z,12.68
2022-12-23T14:19:51.748Z,9.48
2022-12-23T14:22:52.781Z,14.95
2022-12-23T14:25:44.010Z,13.13
2022-12-23T14:28:31.000Z,11.07
2022-12-23T14:30:59.678Z,11.90
2022-12-23T14:33:37.551Z,11.68
2022-12-23T14:36:27.010Z,13.68
2022-12-23T14:39:13.801Z,20.60
2022-12-23T14:41:58.709Z,13.60
2022-12-23T14:44:39.174Z,18.10
2022-12-23T14:47:31.292Z,10.13
2022-12-23T14:52:50.457Z,12.07
2022-12-23T14:55:32.806Z,11.55
2022-12-23T14:58:07.998Z,9.45
2022-12-23T15:00:59.795Z,14.90
2022-12-23T15:03:33.751Z,13.38
2022-12-23T15:06:07.472Z,13.05
2022-12-23T15:08:42.638Z,13.32
2022-12-23T15:11:26.296Z,11.18
2022-12-23T15:13:56.002Z,17.45
2022-12-23T15:16:36.865Z,11.13
2022-12-23T15:19:34.419Z,10.20
2022-12-23T15:22:21.103Z,9.07
2022-12-23T15:24:50.852Z,9.43
2022-12-23T15:27:29.578Z,11.63
2022-12-23T15:29:58.765Z,9.25
2022-12-23T15:32:28.678Z,13.45
2022-12-23T15:35:04.093Z,9.80
2022-12-23T15:37:33.967Z,10.05
2022-12-23T15:40:12.621Z,13.60
2022-12-23T15:42:49.178Z,13.40
2022-12-23T15:45:42.444Z,15.45
2022-12-23T15:48:40.131Z,13.77
2022-12-23T15:51:14.506Z,14.52
2022-12-23T15:53:46.127Z,15.52
2022-12-23T15:56:33.817Z,15.85
2022-12-23T15:59:03.967Z,17.67
2022-12-23T16:01:40.695Z,17.92
2022-12-23T16:04:09.363Z,17.23
2022-12-23T16:06:37.805Z,13.90
2022-12-23T16:09:30.815Z,13.52
2022-12-23T16:12:02.435Z,18.02
2022-12-23T16:14:39.881Z,19.98
2022-12-23T16:17:10.972Z,13.02
2022-12-23T16:19:46.146Z,17.05
2022-12-23T16:22:26.637Z,10.20
2022-12-23T16:25:00.981Z,12.05
2022-12-23T16:27:49.347Z,13.30
2022-12-23T16:30:23.044Z,14.85
2022-12-23T16:32:57.722Z,18.27
2022-12-23T16:35:32.157Z,16.40
2022-12-23T16:38:21.909Z,19.83
2022-12-23T16:40:53.124Z,14.15
2022-12-23T16:43:22.562Z,13.23
2022-12-23T16:45:57.268Z,17.88
2022-12-23T16:48:30.276Z,12.57
2022-12-23T16:51:00.189Z,10.60
2022-12-23T16:53:28.745Z,11.88
2022-12-23T16:56:00.909Z,10.27
2022-12-23T16:58:30.313Z,10.38
2022-12-23T17:00:59.819Z,14.32
2022-12-23T17:03:28.056Z,16.02
2022-12-23T17:05:56.336Z,16.65
2022-12-23T17:08:24.893Z,16.60
2022-12-23T17:10:53.549Z,13.02
2022-12-23T17:13:21.834Z,11.95
2022-12-23T17:15:50.075Z,12.00
2022-12-23T17:18:19.058Z,10.20
2022-12-23T17:20:50.124Z,10.02
2022-12-23T17:23:31.830Z,15.20
2022-12-23T17:26:02.931Z,11.55
2022-12-23T17:28:35.613Z,15.77
2022-12-23T17:31:10.346Z,19.38
2022-12-23T17:33:43.995Z,23.65
2022-12-23T17:36:14.759Z,18.48
2022-12-23T17:38:44.624Z,21.00
2022-12-23T17:41:25.653Z,14.57
2022-12-23T17:43:54.120Z,15.70
2022-12-23T17:46:22.497Z,21.73
2022-12-23T17:48:51.386Z,23.95
2022-12-23T17:51:22.712Z,22.15
2022-12-23T17:53:57.455Z,20.70
2022-12-23T17:56:28.767Z,24.65
2022-12-23T17:58:57.551Z,28.23
2022-12-23T18:01:28.940Z,26.33
2022-12-23T18:03:59.022Z,30.67
2022-12-23T18:06:28.958Z,22.33
2022-12-23T18:08:57.477Z,26.38
2022-12-23T18:11:36.944Z,29.15
2022-12-23T18:14:05.664Z,27.55
2022-12-23T18:16:34.033Z,34.40
2022-12-23T18:19:02.595Z,30.38
2022-12-23T18:21:31.226Z,34.15
2022-12-23T18:24:00.876Z,40.70
2022-12-23T18:26:29.273Z,37.13
2022-12-23T18:28:57.632Z,35.60
2022-12-23T18:31:26.272Z,35.45
2022-12-23T18:33:55.096Z,41.20
2022-12-23T18:36:29.599Z,33.08
2022-12-23T18:38:58.117Z,34.38
2022-12-23T18:41:28.397Z,24.75
2022-12-23T18:43:58.446Z,26.08
2022-12-23T18:46:27.926Z,30.33
2022-12-23T18:48:57.544Z,35.45
2022-12-23T18:51:27.737Z,35.28
2022-12-23T18:53:56.511Z,39.00
2022-12-23T18:56:24.713Z,41.55
2022-12-23T18:58:53.185Z,42.75
2022-12-23T19:01:21.508Z,42.70
2022-12-23T19:03:49.884Z,44.08
2022-12-23T19:06:18.363Z,118.93
2022-12-23T19:08:46.573Z,105.80
2022-12-23T19:11:20.627Z,141.05
2022-12-23T19:13:49.013Z,132.48
2022-12-23T19:16:20.021Z,125.55
2022-12-23T19:18:49.482Z,128.30
2022-12-23T19:21:19.134Z,130.70
2022-12-23T19:23:47.696Z,182.15
2022-12-23T19:26:16.529Z,248.35
2022-12-23T19:28:44.946Z,232.90
2022-12-23T19:31:15.279Z,157.98
2022-12-23T19:33:46.078Z,147.55
2022-12-23T19:36:23.070Z,133.25
2022-12-23T19:38:51.993Z,164.75
2022-12-23T19:41:20.393Z,257.58
2022-12-23T19:43:48.955Z,220.13
2022-12-23T19:46:17.960Z,124.22
2022-12-23T19:48:51.930Z,97.15
2022-12-23T19:51:20.325Z,69.22
2022-12-23T19:53:52.278Z,73.88
2022-12-23T19:56:21.706Z,67.57
2022-12-23T19:58:51.329Z,64.75
2022-12-23T20:01:23.577Z,67.60
2022-12-23T20:03:53.734Z,61.75
2022-12-23T20:06:27.742Z,55.25
2022-12-23T20:09:00.638Z,66.65
2022-12-23T20:11:29.669Z,58.47
2022-12-23T20:13:58.153Z,58.15
2022-12-23T20:16:27.289Z,62.85
2022-12-23T20:18:56.563Z,60.17
2022-12-23T20:21:25.121Z,58.17
2022-12-23T20:23:53.644Z,63.03
2022-12-23T20:26:22.466Z,63.38
2022-12-23T20:28:51.923Z,80.07
2022-12-23T20:31:21.603Z,96.22
2022-12-23T20:33:51.749Z,96.82
2022-12-23T20:36:23.671Z,126.53
2022-12-23T20:38:53.196Z,206.77
2022-12-23T20:41:28.082Z,210.48
2022-12-23T20:44:32.564Z,237.05
2022-12-23T20:46:45.144Z,208.20
2022-12-23T20:49:13.581Z,225.27
2022-12-23T20:51:41.856Z,290.42
2022-12-23T20:54:10.385Z,354.08
2022-12-23T20:56:38.861Z,380.20
2022-12-23T20:59:07.352Z,374.25
2022-12-23T21:01:41.639Z,305.70
2022-12-23T21:04:13.518Z,238.18
2022-12-23T21:06:42.177Z,232.15
2022-12-23T21:09:13.247Z,228.48
2022-12-23T21:11:44.364Z,236.95
2022-12-23T21:14:13.255Z,237.38
2022-12-23T21:16:42.339Z,232.57
2022-12-23T21:19:17.191Z,234.00
2022-12-23T21:21:46.439Z,221.98
2022-12-23T21:24:14.668Z,224.73
2022-12-23T21:26:43.848Z,216.00
2022-12-23T21:29:12.587Z,200.57
2022-12-23T21:31:42.427Z,179.77
2022-12-23T21:34:12.691Z,174.10
2022-12-23T21:36:42.476Z,168.85
2022-12-23T21:39:17.395Z,160.60
2022-12-23T21:41:46.043Z,157.95
2022-12-23T21:44:14.569Z,156.40
2022-12-23T21:46:43.061Z,148.00
2022-12-23T21:49:12.267Z,149.32
2022-12-23T21:51:41.771Z,146.70
2022-12-23T21:54:12.405Z,163.05
2022-12-23T21:56:42.059Z,147.40
2022-12-23T21:59:15.016Z,145.23
2022-12-23T22:01:44.421Z,127.40
2022-12-23T22:04:13.403Z,114.80
2022-12-23T22:06:44.304Z,112.80
2022-12-23T22:09:16.944Z,105.72
2022-12-23T22:11:47.359Z,98.40
2022-12-23T22:14:17.969Z,101.65
2022-12-23T22:16:46.733Z,95.43
2022-12-23T22:19:15.612Z,77.72
2022-12-23T22:21:44.026Z,81.85
2022-12-23T22:24:12.872Z,69.68
2022-12-23T22:26:41.674Z,64.88
2022-12-23T22:29:11.829Z,64.88
2022-12-23T22:31:42.753Z,64.85
2022-12-23T22:34:18.728Z,62.47
2022-12-23T22:36:48.022Z,64.38
2022-12-23T22:39:21.203Z,76.55
2022-12-23T22:41:51.923Z,76.43
2022-12-23T22:44:21.153Z,80.82
2022-12-23T22:46:49.868Z,81.10
2022-12-23T22:49:18.769Z,87.53
2022-12-23T22:51:47.252Z,95.47
2022-12-23T22:54:15.501Z,93.40
2022-12-23T22:56:44.773Z,94.70
2022-12-23T22:59:21.910Z,86.95
2022-12-23T23:01:51.488Z,81.43
2022-12-23T23:04:20.350Z,75.13
2022-12-23T23:06:48.605Z,65.75
2022-12-23T23:09:20.592Z,69.45
2022-12-23T23:11:49.948Z,66.03
2022-12-23T23:14:18.966Z,64.65
2022-12-23T23:16:47.543Z,68.03
2022-12-23T23:19:16.344Z,74.40
2022-12-23T23:21:44.864Z,130.00
2022-12-23T23:24:13.469Z,138.13
2022-12-23T23:26:41.833Z,124.85
2022-12-23T23:29:10.241Z,129.45
2022-12-23T23:31:43.214Z,131.30
2022-12-23T23:34:12.847Z,132.30
2022-12-23T23:36:42.929Z,125.15
2022-12-23T23:39:14.564Z,122.10
2022-12-23T23:41:43.380Z,126.50
2022-12-23T23:44:12.341Z,129.98
2022-12-23T23:46:40.998Z,125.78
2022-12-23T23:49:09.341Z,114.22
2022-12-23T23:51:38.213Z,115.68
2022-12-23T23:54:07.229Z,106.25
2022-12-23T23:56:38.625Z,103.22
2022-12-23T23:59:08.659Z,93.35
